logo
Search for airport 
image banner adimage banner adimage banner ad
image banner ad

CA498 - Cape Beale (Cbj2)

Located in , Canada

ICAO - , IATA -

Data provided by Airmate  

General information

Coordinates: N48°47'14" W125°13'4"
Elevation is 6 feet MSL.
 
View others Airports in British Columbia

Operational data

Special qualification required
Current time UTC:
Current local time:
Weather at : CYAZ - Tofino/Long Beach ( 52 km )
METAR: CYAZ 301900Z 19006KT 15SM SKC 12/09 A3006 RMK SLP183
TAF: TAF CYAZ 301840Z 3019/0101 16005KT P6SM SKC BECMG 3021/3023 27008KT RMK NXT FCST BY 011500Z
View NOTAMs / SUP AIP / TFR affecting this airport [VIEW]
Communications frequencies: [VIEW]

Runways:

Airport contact information

Address: Canada

Satellite view of CA498